createdAt,value
2023-01-08T00:00:29.388Z,0
2023-01-08T00:01:32.520Z,0
2023-01-08T00:02:35.619Z,0
2023-01-08T00:03:40.918Z,0
2023-01-08T00:05:47.512Z,0
2023-01-08T00:06:50.223Z,0
2023-01-08T00:07:52.869Z,0
2023-01-08T00:08:56.120Z,0
2023-01-08T00:11:03.799Z,0
2023-01-08T00:13:10.985Z,0
2023-01-08T00:14:14.898Z,0
2023-01-08T00:16:21.307Z,0
2023-01-08T00:18:27.156Z,0
2023-01-08T00:20:32.766Z,0
2023-01-08T00:21:35.995Z,0
2023-01-08T00:23:42.317Z,0
2023-01-08T00:25:50.443Z,0
2023-01-08T00:27:57.618Z,0
2023-01-08T00:29:00.645Z,0
2023-01-08T00:31:08.603Z,0
2023-01-08T00:33:14.899Z,0
2023-01-08T00:35:21.282Z,0
2023-01-08T00:36:25.426Z,0
2023-01-08T00:38:32.878Z,0
2023-01-08T00:40:40.809Z,0
2023-01-08T00:42:00.039Z,0
2023-01-08T00:43:04.589Z,0
2023-01-08T00:45:12.838Z,0
2023-01-08T00:46:16.515Z,0
2023-01-08T00:48:21.788Z,0
2023-01-08T00:50:28.706Z,0
2023-01-08T00:52:34.699Z,0
2023-01-08T00:53:37.920Z,0
2023-01-08T00:54:41.837Z,0
2023-01-08T00:55:45.156Z,0
2023-01-08T00:57:51.423Z,0
2023-01-08T00:58:54.700Z,0
2023-01-08T00:59:57.935Z,0
2023-01-08T01:01:01.406Z,0
2023-01-08T01:03:08.518Z,0
2023-01-08T01:04:11.794Z,0
2023-01-08T01:05:15.559Z,0
2023-01-08T01:06:19.316Z,0
2023-01-08T01:08:24.577Z,0
2023-01-08T01:10:31.115Z,0
2023-01-08T01:11:33.532Z,0
2023-01-08T01:13:40.148Z,0
2023-01-08T01:15:46.049Z,0
2023-01-08T01:17:53.472Z,0
2023-01-08T01:18:56.159Z,0
2023-01-08T01:21:01.352Z,0
2023-01-08T01:23:07.294Z,0
2023-01-08T01:25:12.753Z,0
2023-01-08T01:26:15.897Z,0
2023-01-08T01:28:23.922Z,0
2023-01-08T01:30:30.316Z,0
2023-01-08T01:32:36.983Z,0
2023-01-08T01:33:40.151Z,0
2023-01-08T01:35:45.721Z,0
2023-01-08T01:37:51.814Z,0
2023-01-08T01:38:55.197Z,0
2023-01-08T01:39:58.642Z,0
2023-01-08T01:41:01.453Z,0
2023-01-08T01:43:08.176Z,0
2023-01-08T01:44:12.225Z,0
2023-01-08T01:46:18.793Z,0
2023-01-08T01:48:24.856Z,0
2023-01-08T01:49:27.751Z,0
2023-01-08T01:51:34.201Z,0
2023-01-08T01:53:40.370Z,0
2023-01-08T01:55:45.351Z,0
2023-01-08T01:56:48.347Z,0
2023-01-08T01:58:55.175Z,0
2023-01-08T02:01:03.298Z,0
2023-01-08T02:03:10.849Z,0
2023-01-08T02:04:14.455Z,0
2023-01-08T02:06:21.313Z,0
2023-01-08T02:08:27.442Z,0
2023-01-08T02:09:29.958Z,0
2023-01-08T02:11:35.814Z,0
2023-01-08T02:13:42.783Z,0
2023-01-08T02:14:46.112Z,0
2023-01-08T02:16:53.586Z,0
2023-01-08T02:17:56.760Z,0
2023-01-08T02:20:03.443Z,0
2023-01-08T02:22:08.907Z,0
2023-01-08T02:23:11.915Z,0
2023-01-08T02:25:18.044Z,0
2023-01-08T02:26:21.098Z,0
2023-01-08T02:27:24.162Z,0
2023-01-08T02:28:26.956Z,0
2023-01-08T02:30:33.538Z,0
2023-01-08T02:31:37.605Z,0
2023-01-08T02:33:44.007Z,0
2023-01-08T02:35:50.481Z,0
2023-01-08T02:37:55.454Z,0
2023-01-08T02:38:58.508Z,0
2023-01-08T02:41:05.338Z,0
2023-01-08T02:42:08.719Z,0
2023-01-08T02:44:14.559Z,0
2023-01-08T02:46:22.833Z,0
2023-01-08T02:47:26.917Z,0
2023-01-08T02:49:32.715Z,0
2023-01-08T02:51:38.939Z,0
2023-01-08T02:52:41.932Z,0
2023-01-08T02:54:48.307Z,0
2023-01-08T02:55:51.631Z,0
2023-01-08T02:56:54.621Z,0
2023-01-08T02:57:57.825Z,0
2023-01-08T03:00:03.984Z,0
2023-01-08T03:02:12.971Z,0
2023-01-08T03:03:16.810Z,0
2023-01-08T03:04:20.548Z,0
2023-01-08T03:05:23.296Z,0
2023-01-08T03:07:29.629Z,0
2023-01-08T03:08:32.884Z,0
2023-01-08T03:10:39.963Z,0
2023-01-08T03:12:46.639Z,0
2023-01-08T03:13:49.708Z,0
2023-01-08T03:15:55.805Z,0
2023-01-08T03:18:03.577Z,0
2023-01-08T03:19:09.409Z,0
2023-01-08T03:21:15.232Z,0
2023-01-08T03:23:22.424Z,0
2023-01-08T03:25:28.303Z,0
2023-01-08T03:26:31.381Z,0
2023-01-08T03:28:36.687Z,0
2023-01-08T03:30:43.410Z,0
2023-01-08T03:31:46.491Z,0
2023-01-08T03:32:49.615Z,0
2023-01-08T03:33:53.590Z,0
2023-01-08T03:36:00.638Z,0
2023-01-08T03:38:07.438Z,0
2023-01-08T03:39:10.156Z,0
2023-01-08T03:41:15.999Z,0
2023-01-08T03:43:21.558Z,0
2023-01-08T03:45:27.471Z,0
2023-01-08T03:46:30.601Z,0
2023-01-08T03:48:36.601Z,0
2023-01-08T03:50:44.081Z,0
2023-01-08T03:52:50.238Z,0
2023-01-08T03:53:53.487Z,0
2023-01-08T03:55:59.931Z,0
2023-01-08T03:58:06.478Z,0
2023-01-08T03:59:09.302Z,0
2023-01-08T04:01:16.728Z,0
2023-01-08T04:03:24.255Z,0
2023-01-08T04:05:31.394Z,0
2023-01-08T04:06:35.398Z,0
2023-01-08T04:07:38.312Z,0
2023-01-08T04:08:41.360Z,0
2023-01-08T04:10:48.326Z,0
2023-01-08T04:11:51.044Z,0
2023-01-08T04:12:54.416Z,0
2023-01-08T04:13:57.161Z,0
2023-01-08T04:16:03.980Z,0
2023-01-08T04:18:10.016Z,0
2023-01-08T04:19:12.728Z,0
2023-01-08T04:21:19.232Z,0
2023-01-08T04:23:26.219Z,0
2023-01-08T04:25:33.059Z,0
2023-01-08T04:26:35.924Z,0
2023-01-08T04:28:41.697Z,0
2023-01-08T04:30:47.693Z,0
2023-01-08T04:32:54.096Z,0
2023-01-08T04:33:57.471Z,0
2023-01-08T04:36:02.899Z,0
2023-01-08T04:38:13.657Z,0
2023-01-08T04:40:19.537Z,0
2023-01-08T04:41:23.109Z,0
2023-01-08T04:43:28.970Z,0
2023-01-08T04:45:34.815Z,0
2023-01-08T04:47:41.962Z,0
2023-01-08T04:48:44.956Z,0
2023-01-08T04:50:52.215Z,0
2023-01-08T04:52:59.612Z,0
2023-01-08T04:55:07.045Z,0
2023-01-08T04:56:10.515Z,0
2023-01-08T04:57:14.754Z,0
2023-01-08T04:58:17.742Z,0
2023-01-08T05:00:23.572Z,0
2023-01-08T05:01:27.596Z,0
2023-01-08T05:02:32.255Z,0
2023-01-08T05:03:35.613Z,0
2023-01-08T05:05:41.151Z,0
2023-01-08T05:07:47.993Z,0
2023-01-08T05:08:51.505Z,0
2023-01-08T05:10:58.863Z,0
2023-01-08T05:13:05.939Z,0
2023-01-08T05:15:12.007Z,0
2023-01-08T05:16:16.065Z,0
2023-01-08T05:18:22.535Z,0
2023-01-08T05:20:28.554Z,0
2023-01-08T05:22:34.060Z,0
2023-01-08T05:23:37.069Z,0
2023-01-08T05:25:44.820Z,0
2023-01-08T05:27:50.735Z,0
2023-01-08T05:29:57.675Z,0
2023-01-08T05:31:01.580Z,0
2023-01-08T05:33:07.381Z,0
2023-01-08T05:35:13.132Z,0
2023-01-08T05:37:18.719Z,0
2023-01-08T05:38:22.390Z,0
2023-01-08T05:40:29.317Z,0
2023-01-08T05:42:36.777Z,0
2023-01-08T05:44:42.248Z,0
2023-01-08T05:45:44.693Z,0
2023-01-08T05:47:50.275Z,0
2023-01-08T05:49:56.994Z,0
2023-01-08T05:52:02.817Z,0
2023-01-08T05:53:05.398Z,0
2023-01-08T05:55:11.389Z,0
2023-01-08T05:57:18.985Z,0
2023-01-08T05:59:24.576Z,0
2023-01-08T06:00:28.078Z,0
2023-01-08T06:02:35.339Z,0
2023-01-08T06:04:40.673Z,0
2023-01-08T06:06:46.927Z,0
2023-01-08T06:07:49.915Z,0
2023-01-08T06:09:56.439Z,0
2023-01-08T06:12:03.158Z,0
2023-01-08T06:13:07.241Z,0
2023-01-08T06:14:10.129Z,0
2023-01-08T06:15:13.178Z,0
2023-01-08T06:17:19.503Z,0
2023-01-08T06:18:22.227Z,0
2023-01-08T06:19:24.691Z,0
2023-01-08T06:20:27.741Z,0
2023-01-08T06:22:35.675Z,0
2023-01-08T06:23:38.471Z,0
2023-01-08T06:24:42.095Z,0
2023-01-08T06:25:45.190Z,0
2023-01-08T06:27:51.682Z,0
2023-01-08T06:29:57.830Z,0
2023-01-08T06:31:01.246Z,0
2023-01-08T06:33:07.596Z,0
2023-01-08T06:35:14.332Z,0
2023-01-08T06:37:20.378Z,0
2023-01-08T06:38:23.783Z,0
2023-01-08T06:40:30.127Z,0
2023-01-08T06:42:35.610Z,0
2023-01-08T06:44:42.860Z,0
2023-01-08T06:45:46.014Z,0
2023-01-08T06:47:52.351Z,0
2023-01-08T06:49:58.573Z,0
2023-01-08T06:51:01.861Z,0
2023-01-08T06:52:05.288Z,0
2023-01-08T06:53:08.580Z,0
2023-01-08T06:55:18.125Z,0
2023-01-08T06:57:24.106Z,0
2023-01-08T06:58:27.932Z,0
2023-01-08T07:00:35.900Z,0
2023-01-08T07:02:43.231Z,0
2023-01-08T07:04:49.500Z,0
2023-01-08T07:05:52.559Z,0
2023-01-08T07:07:58.411Z,0
2023-01-08T07:10:04.069Z,0
2023-01-08T07:11:07.821Z,0
2023-01-08T07:12:10.907Z,0
2023-01-08T07:13:14.070Z,0
2023-01-08T07:15:21.210Z,0
2023-01-08T07:16:25.715Z,0
2023-01-08T07:17:28.837Z,0
2023-01-08T07:18:31.930Z,0
2023-01-08T07:20:37.998Z,0
2023-01-08T07:22:44.648Z,0
2023-01-08T07:23:48.388Z,1
2023-01-08T07:25:55.230Z,1
2023-01-08T07:28:02.042Z,1
2023-01-08T07:30:32.008Z,1
2023-01-08T07:32:39.572Z,1
2023-01-08T07:33:42.940Z,1
2023-01-08T07:35:49.954Z,1
2023-01-08T07:37:56.267Z,1
2023-01-08T07:40:02.759Z,2
2023-01-08T07:41:06.316Z,2
2023-01-08T07:43:12.491Z,2
2023-01-08T07:45:18.604Z,2
2023-01-08T07:47:26.464Z,2
2023-01-08T07:48:29.196Z,3
2023-01-08T07:50:35.663Z,3
2023-01-08T07:52:42.151Z,4
2023-01-08T07:54:47.939Z,5
2023-01-08T07:55:51.371Z,5
2023-01-08T07:57:57.362Z,5
2023-01-08T08:00:03.566Z,6
2023-01-08T08:02:10.765Z,6
2023-01-08T08:03:15.550Z,5
2023-01-08T08:05:21.056Z,5
2023-01-08T08:07:26.723Z,5
2023-01-08T08:09:33.136Z,5
2023-01-08T08:10:36.184Z,5
2023-01-08T08:12:41.393Z,5
2023-01-08T08:14:46.327Z,6
2023-01-08T08:16:53.482Z,6
2023-01-08T08:17:57.192Z,5
2023-01-08T08:20:04.051Z,6
2023-01-08T08:22:11.019Z,6
2023-01-08T08:24:16.893Z,7
2023-01-08T08:25:20.270Z,8
2023-01-08T08:27:26.087Z,9
2023-01-08T08:29:31.873Z,12
2023-01-08T08:31:38.131Z,13
2023-01-08T08:32:41.499Z,14
2023-01-08T08:34:49.319Z,15
2023-01-08T08:36:54.848Z,16
2023-01-08T08:39:01.568Z,17
2023-01-08T08:40:04.854Z,17
2023-01-08T08:42:10.448Z,17
2023-01-08T08:44:16.707Z,18
2023-01-08T08:45:20.112Z,18
2023-01-08T08:46:23.267Z,19
2023-01-08T08:47:26.555Z,19
2023-01-08T08:49:33.603Z,19
2023-01-08T08:51:39.876Z,20
2023-01-08T08:52:43.208Z,20
2023-01-08T08:53:46.467Z,21
2023-01-08T08:54:48.931Z,21
2023-01-08T08:56:54.395Z,22
2023-01-08T08:57:57.410Z,23
2023-01-08T09:00:03.376Z,23
2023-01-08T09:02:11.186Z,23
2023-01-08T09:04:17.588Z,23
2023-01-08T09:05:21.573Z,24
2023-01-08T09:07:27.783Z,23
2023-01-08T09:09:33.939Z,23
2023-01-08T09:11:39.428Z,22
2023-01-08T09:12:42.872Z,21
2023-01-08T09:14:49.277Z,21
2023-01-08T09:16:55.013Z,20
2023-01-08T09:17:57.539Z,20
2023-01-08T09:19:01.063Z,20
2023-01-08T09:20:04.390Z,21
2023-01-08T09:22:12.295Z,21
2023-01-08T09:24:17.732Z,22
2023-01-08T09:25:21.281Z,23
2023-01-08T09:27:27.088Z,23
2023-01-08T09:29:32.633Z,23
2023-01-08T09:31:39.965Z,22
2023-01-08T09:32:43.000Z,22
2023-01-08T09:34:48.717Z,21
2023-01-08T09:36:55.307Z,20
2023-01-08T09:39:03.208Z,18
2023-01-08T09:40:06.615Z,17
2023-01-08T09:42:12.096Z,12
2023-01-08T09:44:18.766Z,11
2023-01-08T09:45:22.432Z,10
2023-01-08T09:47:28.428Z,15
2023-01-08T09:49:33.982Z,19
2023-01-08T09:50:36.696Z,17
2023-01-08T09:51:40.084Z,16
2023-01-08T09:52:46.127Z,16
2023-01-08T09:54:53.592Z,14
2023-01-08T09:56:12.361Z,17
2023-01-08T09:57:15.738Z,16
2023-01-08T09:58:18.719Z,15
2023-01-08T10:00:24.738Z,18
2023-01-08T10:02:33.753Z,20
2023-01-08T10:03:36.945Z,20
2023-01-08T10:05:43.491Z,13
2023-01-08T10:07:48.924Z,22
2023-01-08T10:09:56.367Z,22
2023-01-08T10:10:59.440Z,23
2023-01-08T10:13:05.818Z,22
2023-01-08T10:15:11.944Z,21
2023-01-08T10:16:14.754Z,20
2023-01-08T10:18:21.213Z,22
2023-01-08T10:20:27.168Z,15
2023-01-08T10:21:29.363Z,18
2023-01-08T10:22:32.209Z,25
2023-01-08T10:23:35.204Z,24
2023-01-08T10:25:41.412Z,26
2023-01-08T10:26:44.396Z,31
2023-01-08T10:28:50.676Z,32
2023-01-08T10:30:57.066Z,32
2023-01-08T10:32:00.113Z,26
2023-01-08T10:34:05.838Z,36
2023-01-08T10:36:12.043Z,27
2023-01-08T10:37:15.431Z,21
2023-01-08T10:39:21.898Z,21
2023-01-08T10:40:25.755Z,29
2023-01-08T10:42:32.722Z,27
2023-01-08T10:44:39.495Z,28
2023-01-08T10:45:42.819Z,31
2023-01-08T10:46:46.154Z,31
2023-01-08T10:47:49.504Z,34
2023-01-08T10:48:52.591Z,30
2023-01-08T10:49:56.281Z,23
2023-01-08T10:50:59.345Z,22
2023-01-08T10:53:05.515Z,30
2023-01-08T10:54:09.238Z,36
2023-01-08T10:56:16.778Z,42
2023-01-08T10:57:20.144Z,36
2023-01-08T10:58:23.489Z,37
2023-01-08T10:59:26.698Z,33
2023-01-08T11:01:33.836Z,39
2023-01-08T11:02:41.587Z,46
2023-01-08T11:03:45.351Z,44
2023-01-08T11:04:48.989Z,47
2023-01-08T11:06:55.729Z,48
2023-01-08T11:09:01.287Z,51
2023-01-08T11:10:04.662Z,53
2023-01-08T11:12:12.186Z,45
2023-01-08T11:14:17.726Z,44
2023-01-08T11:15:21.484Z,43
2023-01-08T11:17:27.894Z,39
2023-01-08T11:19:34.562Z,36
2023-01-08T11:20:37.283Z,41
2023-01-08T11:22:43.301Z,37
2023-01-08T11:24:49.472Z,32
2023-01-08T11:25:52.555Z,32
2023-01-08T11:27:59.542Z,30
2023-01-08T11:29:02.393Z,28
2023-01-08T11:30:06.156Z,27
2023-01-08T11:31:09.557Z,24
2023-01-08T11:33:15.828Z,28
2023-01-08T11:34:18.408Z,31
2023-01-08T11:36:24.893Z,38
2023-01-08T11:37:28.524Z,44
2023-01-08T11:38:32.164Z,47
2023-01-08T11:39:35.806Z,53
2023-01-08T11:41:42.063Z,65
2023-01-08T11:42:45.187Z,67
2023-01-08T11:44:52.348Z,69
2023-01-08T11:45:56.261Z,69
2023-01-08T11:48:03.772Z,69
2023-01-08T11:50:09.960Z,68
2023-01-08T11:51:13.334Z,71
2023-01-08T11:53:19.409Z,71
2023-01-08T11:55:25.538Z,72
2023-01-08T11:56:28.543Z,74
2023-01-08T11:58:34.227Z,84
2023-01-08T11:59:37.953Z,88
2023-01-08T12:01:45.321Z,69
2023-01-08T12:02:49.048Z,64
2023-01-08T12:03:51.334Z,55
2023-01-08T12:04:54.621Z,58
2023-01-08T12:07:01.265Z,57
2023-01-08T12:08:04.562Z,59
2023-01-08T12:10:10.713Z,57
2023-01-08T12:11:13.816Z,52
2023-01-08T12:13:20.789Z,50
2023-01-08T12:15:27.651Z,53
2023-01-08T12:16:31.409Z,54
2023-01-08T12:18:37.627Z,67
2023-01-08T12:20:44.089Z,59
2023-01-08T12:21:46.552Z,57
2023-01-08T12:23:52.277Z,57
2023-01-08T12:25:58.990Z,58
2023-01-08T12:27:01.736Z,57
2023-01-08T12:29:08.397Z,56
2023-01-08T12:31:16.165Z,52
2023-01-08T12:32:20.716Z,51
2023-01-08T12:34:27.367Z,72
2023-01-08T12:36:33.838Z,87
2023-01-08T12:37:37.238Z,87
2023-01-08T12:39:43.707Z,78
2023-01-08T12:40:46.427Z,79
2023-01-08T12:43:06.826Z,76
2023-01-08T12:45:13.431Z,61
2023-01-08T12:47:21.632Z,53
2023-01-08T12:48:24.467Z,40
2023-01-08T12:50:30.601Z,49
2023-01-08T12:52:37.114Z,45
2023-01-08T12:53:40.786Z,42
2023-01-08T12:55:47.239Z,40
2023-01-08T12:57:54.110Z,54
2023-01-08T12:58:56.260Z,47
2023-01-08T13:01:03.330Z,40
2023-01-08T13:02:07.676Z,32
2023-01-08T13:04:15.571Z,32
2023-01-08T13:05:18.611Z,22
2023-01-08T13:07:24.422Z,25
2023-01-08T13:09:30.552Z,26
2023-01-08T13:11:37.413Z,18
2023-01-08T13:12:40.754Z,22
2023-01-08T13:14:47.866Z,35
2023-01-08T13:16:53.732Z,22
2023-01-08T13:17:57.252Z,19
2023-01-08T13:20:04.583Z,18
2023-01-08T13:22:10.165Z,13
2023-01-08T13:24:16.304Z,13
2023-01-08T13:25:19.467Z,12
2023-01-08T13:27:25.582Z,13
2023-01-08T13:29:31.250Z,10
2023-01-08T13:30:34.095Z,10
2023-01-08T13:32:41.222Z,12
2023-01-08T13:34:48.978Z,23
2023-01-08T13:35:51.979Z,27
2023-01-08T13:37:58.725Z,30
2023-01-08T13:39:01.903Z,27
2023-01-08T13:41:08.769Z,40
2023-01-08T13:43:14.306Z,34
2023-01-08T13:44:17.392Z,33
2023-01-08T13:46:24.479Z,25
2023-01-08T13:48:31.082Z,26
2023-01-08T13:49:34.435Z,29
2023-01-08T13:51:41.744Z,29
2023-01-08T13:53:48.208Z,40
2023-01-08T13:54:51.217Z,37
2023-01-08T13:56:58.029Z,51
2023-01-08T13:59:04.224Z,53
2023-01-08T14:00:07.963Z,54
2023-01-08T14:02:16.818Z,65
2023-01-08T14:04:22.994Z,51
2023-01-08T14:05:26.736Z,61
2023-01-08T14:06:30.785Z,59
2023-01-08T14:07:33.872Z,66
2023-01-08T14:09:40.878Z,59
2023-01-08T14:10:43.931Z,51
2023-01-08T14:12:49.664Z,46
2023-01-08T14:14:58.973Z,47
2023-01-08T14:17:05.361Z,52
2023-01-08T14:18:08.084Z,47
2023-01-08T14:20:15.195Z,47
2023-01-08T14:22:22.513Z,44
2023-01-08T14:24:29.032Z,42
2023-01-08T14:25:32.098Z,45
2023-01-08T14:27:38.942Z,36
2023-01-08T14:29:46.389Z,33
2023-01-08T14:30:49.655Z,31
2023-01-08T14:31:53.172Z,29
2023-01-08T14:32:56.287Z,27
2023-01-08T14:35:01.763Z,27
2023-01-08T14:36:04.176Z,26
2023-01-08T14:37:07.008Z,26
2023-01-08T14:38:10.743Z,25
2023-01-08T14:40:17.404Z,22
2023-01-08T14:41:20.805Z,20
2023-01-08T14:43:26.308Z,17
2023-01-08T14:44:43.885Z,15
2023-01-08T14:45:47.890Z,14
2023-01-08T14:47:53.767Z,15
2023-01-08T14:48:57.219Z,17
2023-01-08T14:51:02.798Z,17
2023-01-08T14:53:08.510Z,16
2023-01-08T14:55:15.122Z,15
2023-01-08T14:56:18.799Z,14
2023-01-08T14:58:28.645Z,13
2023-01-08T15:00:35.358Z,10
2023-01-08T15:02:43.214Z,9
2023-01-08T15:03:46.695Z,8
2023-01-08T15:05:53.319Z,7
2023-01-08T15:07:59.021Z,5
2023-01-08T15:10:06.235Z,5
2023-01-08T15:11:09.309Z,5
2023-01-08T15:13:15.697Z,4
2023-01-08T15:15:22.434Z,3
2023-01-08T15:16:25.844Z,3
2023-01-08T15:18:31.626Z,3
2023-01-08T15:20:39.296Z,2
2023-01-08T15:22:45.311Z,2
2023-01-08T15:23:48.680Z,1
2023-01-08T15:25:56.597Z,1
2023-01-08T15:28:02.737Z,1
2023-01-08T15:29:06.056Z,0
2023-01-08T15:30:09.483Z,0
2023-01-08T15:31:12.272Z,0
2023-01-08T15:33:19.122Z,0
2023-01-08T15:35:25.412Z,0
2023-01-08T15:36:29.195Z,0
2023-01-08T15:38:35.753Z,0
2023-01-08T15:40:42.485Z,0
2023-01-08T15:42:49.048Z,0
2023-01-08T15:43:53.916Z,0
2023-01-08T15:46:00.432Z,0
2023-01-08T15:48:06.951Z,0
2023-01-08T15:50:13.404Z,0
2023-01-08T15:51:15.961Z,0
2023-01-08T15:53:22.682Z,0
2023-01-08T15:55:29.529Z,0
2023-01-08T15:57:36.645Z,0
2023-01-08T15:58:40.039Z,0
2023-01-08T16:00:47.252Z,0
2023-01-08T16:02:55.171Z,0
2023-01-08T16:05:00.243Z,0
2023-01-08T16:06:03.225Z,0
2023-01-08T16:08:08.790Z,0
2023-01-08T16:10:15.589Z,0
2023-01-08T16:12:21.783Z,0
2023-01-08T16:13:25.838Z,0
2023-01-08T16:15:31.979Z,0
2023-01-08T16:17:38.010Z,0
2023-01-08T16:19:45.828Z,0
2023-01-08T16:20:48.813Z,0
2023-01-08T16:22:53.443Z,0
2023-01-08T16:24:59.582Z,0
2023-01-08T16:26:02.643Z,0
2023-01-08T16:28:09.202Z,0
2023-01-08T16:30:15.665Z,0
2023-01-08T16:32:22.402Z,0
2023-01-08T16:33:25.234Z,0
2023-01-08T16:35:32.123Z,0
2023-01-08T16:37:37.837Z,0
2023-01-08T16:39:43.702Z,0
2023-01-08T16:40:47.131Z,0
2023-01-08T16:42:52.627Z,0
2023-01-08T16:44:59.141Z,0
2023-01-08T16:46:02.870Z,0
2023-01-08T16:48:10.424Z,0
2023-01-08T16:50:17.880Z,0
2023-01-08T16:52:24.472Z,0
2023-01-08T16:53:26.920Z,0
2023-01-08T16:54:30.060Z,0
2023-01-08T16:55:34.082Z,0
2023-01-08T16:57:40.993Z,0
2023-01-08T16:59:47.696Z,0
2023-01-08T17:00:52.156Z,0
2023-01-08T17:01:55.870Z,0
2023-01-08T17:02:59.193Z,0
2023-01-08T17:05:06.068Z,0
2023-01-08T17:06:09.393Z,0
2023-01-08T17:07:12.146Z,0
2023-01-08T17:08:14.689Z,0
2023-01-08T17:10:22.132Z,0
2023-01-08T17:11:25.220Z,0
2023-01-08T17:12:28.281Z,0
2023-01-08T17:13:31.557Z,0
2023-01-08T17:15:38.359Z,0
2023-01-08T17:17:45.662Z,0
2023-01-08T17:18:49.013Z,0
2023-01-08T17:20:54.934Z,0
2023-01-08T17:23:00.450Z,0
2023-01-08T17:25:07.189Z,0
2023-01-08T17:26:10.949Z,0
2023-01-08T17:28:17.153Z,0
2023-01-08T17:30:23.079Z,0
2023-01-08T17:32:30.224Z,0
2023-01-08T17:33:33.605Z,0
2023-01-08T17:35:39.543Z,0
2023-01-08T17:37:45.396Z,0
2023-01-08T17:38:48.690Z,0
2023-01-08T17:39:52.038Z,0
2023-01-08T17:40:54.913Z,0
2023-01-08T17:43:00.631Z,0
2023-01-08T17:44:03.651Z,0
2023-01-08T17:45:07.140Z,0
2023-01-08T17:46:10.157Z,0
2023-01-08T17:48:17.068Z,0
2023-01-08T17:50:22.841Z,0
2023-01-08T17:52:30.048Z,0
2023-01-08T17:53:33.420Z,0
2023-01-08T17:55:39.695Z,0
2023-01-08T17:57:46.451Z,0
2023-01-08T17:59:53.214Z,0
2023-01-08T18:00:56.823Z,0
2023-01-08T18:03:04.218Z,0
2023-01-08T18:05:10.550Z,0
2023-01-08T18:07:16.946Z,0
2023-01-08T18:08:20.637Z,0
2023-01-08T18:10:26.278Z,0
2023-01-08T18:12:32.681Z,0
2023-01-08T18:14:38.231Z,0
2023-01-08T18:15:41.046Z,0
2023-01-08T18:17:47.497Z,0
2023-01-08T18:19:55.430Z,0
2023-01-08T18:20:58.481Z,0
2023-01-08T18:22:01.735Z,0
2023-01-08T18:23:05.141Z,0
2023-01-08T18:25:11.718Z,0
2023-01-08T18:26:15.441Z,0
2023-01-08T18:27:18.689Z,0
2023-01-08T18:28:21.481Z,0
2023-01-08T18:30:27.974Z,0
2023-01-08T18:31:31.310Z,0
2023-01-08T18:32:34.589Z,0
2023-01-08T18:33:37.968Z,0
2023-01-08T18:35:45.490Z,0
2023-01-08T18:37:52.626Z,0
2023-01-08T18:38:55.999Z,0
2023-01-08T18:41:02.585Z,0
2023-01-08T18:43:08.797Z,0
2023-01-08T18:45:14.413Z,0
2023-01-08T18:46:16.831Z,0
2023-01-08T18:48:23.575Z,0
2023-01-08T18:50:30.438Z,0
2023-01-08T18:52:36.959Z,0
2023-01-08T18:53:39.943Z,0
2023-01-08T18:55:46.673Z,0
2023-01-08T18:57:53.143Z,0
2023-01-08T18:58:55.677Z,0
2023-01-08T18:59:59.393Z,0
2023-01-08T19:01:02.860Z,0
2023-01-08T19:03:09.201Z,0
2023-01-08T19:04:12.522Z,0
2023-01-08T19:05:15.313Z,0
2023-01-08T19:06:18.780Z,0
2023-01-08T19:08:24.464Z,0
2023-01-08T19:09:27.720Z,0
2023-01-08T19:10:30.992Z,0
2023-01-08T19:11:34.122Z,0
2023-01-08T19:13:39.449Z,0
2023-01-08T19:15:45.812Z,0
2023-01-08T19:16:49.138Z,0
2023-01-08T19:18:55.914Z,0
2023-01-08T19:21:02.322Z,0
2023-01-08T19:23:08.956Z,0
2023-01-08T19:24:12.321Z,0
2023-01-08T19:26:17.945Z,0
2023-01-08T19:28:24.408Z,0
2023-01-08T19:30:31.169Z,0
2023-01-08T19:31:34.348Z,0
2023-01-08T19:33:40.216Z,0
2023-01-08T19:35:46.166Z,0
2023-01-08T19:37:52.100Z,0
2023-01-08T19:38:55.868Z,0
2023-01-08T19:41:01.809Z,0
2023-01-08T19:43:08.030Z,0
2023-01-08T19:45:14.797Z,0
2023-01-08T19:46:18.142Z,0
2023-01-08T19:48:24.047Z,0
2023-01-08T19:50:30.749Z,0
2023-01-08T19:52:37.213Z,0
2023-01-08T19:53:40.772Z,0
2023-01-08T19:55:47.521Z,0
2023-01-08T19:57:54.594Z,0
2023-01-08T20:00:00.744Z,0
2023-01-08T20:01:04.477Z,0
2023-01-08T20:03:11.086Z,0
2023-01-08T20:05:16.596Z,0
2023-01-08T20:06:20.404Z,0
2023-01-08T20:07:23.776Z,0
2023-01-08T20:08:27.149Z,0
2023-01-08T20:10:34.987Z,0
2023-01-08T20:11:38.279Z,0
2023-01-08T20:12:41.563Z,0
2023-01-08T20:13:45.085Z,0
2023-01-08T20:15:51.252Z,0
2023-01-08T20:16:54.243Z,0
2023-01-08T20:17:57.050Z,0
2023-01-08T20:19:00.397Z,0
2023-01-08T20:21:06.455Z,0
2023-01-08T20:23:13.241Z,0
2023-01-08T20:24:16.880Z,0
2023-01-08T20:26:24.393Z,0
2023-01-08T20:28:30.256Z,0
2023-01-08T20:30:36.159Z,0
2023-01-08T20:31:40.736Z,0
2023-01-08T20:33:46.935Z,0
2023-01-08T20:35:53.272Z,0
2023-01-08T20:37:59.326Z,0
2023-01-08T20:39:03.369Z,0
2023-01-08T20:41:09.938Z,0
2023-01-08T20:42:35.654Z,0
2023-01-08T20:43:39.192Z,0
2023-01-08T20:45:46.581Z,0
2023-01-08T20:46:49.969Z,0
2023-01-08T20:47:52.968Z,0
2023-01-08T20:48:55.965Z,0
2023-01-08T20:51:03.404Z,0
2023-01-08T20:52:06.168Z,0
2023-01-08T20:53:08.616Z,0
2023-01-08T20:54:11.334Z,0
2023-01-08T20:56:18.177Z,0
2023-01-08T20:57:21.953Z,0
2023-01-08T20:58:24.659Z,0
2023-01-08T20:59:28.069Z,0
2023-01-08T21:01:36.245Z,0
2023-01-08T21:03:42.925Z,0
2023-01-08T21:04:45.748Z,0
2023-01-08T21:06:50.390Z,0
2023-01-08T21:08:56.717Z,0
2023-01-08T21:11:03.155Z,0
2023-01-08T21:12:06.635Z,0
2023-01-08T21:14:14.124Z,0
2023-01-08T21:16:24.531Z,0
2023-01-08T21:18:31.010Z,0
2023-01-08T21:19:33.446Z,0
2023-01-08T21:21:42.504Z,0
2023-01-08T21:23:48.612Z,0
2023-01-08T21:25:53.776Z,0
2023-01-08T21:26:56.923Z,0
2023-01-08T21:29:04.781Z,0
2023-01-08T21:31:12.257Z,0
2023-01-08T21:33:19.748Z,0
2023-01-08T21:34:22.879Z,0
2023-01-08T21:35:25.881Z,0
2023-01-08T21:36:29.485Z,0
2023-01-08T21:38:36.341Z,0
2023-01-08T21:39:39.469Z,0
2023-01-08T21:40:42.723Z,0
2023-01-08T21:41:45.991Z,0
2023-01-08T21:43:51.396Z,0
2023-01-08T21:44:55.258Z,0
2023-01-08T21:45:59.106Z,0
2023-01-08T21:47:02.941Z,0
2023-01-08T21:49:08.817Z,0
2023-01-08T21:51:14.682Z,0
2023-01-08T21:52:18.074Z,0
2023-01-08T21:54:24.982Z,0
2023-01-08T21:56:31.255Z,0
2023-01-08T21:57:34.595Z,0
2023-01-08T21:58:37.635Z,0
2023-01-08T21:59:40.697Z,0
2023-01-08T22:01:48.650Z,0
2023-01-08T22:02:51.762Z,0
2023-01-08T22:03:55.534Z,0
2023-01-08T22:04:58.941Z,0
2023-01-08T22:07:05.459Z,0
2023-01-08T22:09:11.566Z,0
2023-01-08T22:10:14.857Z,0
2023-01-08T22:12:21.296Z,0
2023-01-08T22:14:27.048Z,0
2023-01-08T22:16:34.145Z,0
2023-01-08T22:17:36.982Z,0
2023-01-08T22:19:43.317Z,0
2023-01-08T22:21:49.408Z,0
2023-01-08T22:23:55.756Z,0
2023-01-08T22:24:59.097Z,0
2023-01-08T22:27:04.722Z,0
2023-01-08T22:29:11.174Z,0
2023-01-08T22:31:17.464Z,0
2023-01-08T22:32:20.946Z,0
2023-01-08T22:34:27.476Z,0
2023-01-08T22:36:33.434Z,0
2023-01-08T22:38:38.971Z,0
2023-01-08T22:39:42.311Z,0
2023-01-08T22:41:48.689Z,0
2023-01-08T22:43:55.070Z,0
2023-01-08T22:46:02.533Z,0
2023-01-08T22:47:05.686Z,0
2023-01-08T22:49:12.603Z,0
2023-01-08T22:51:18.992Z,0
2023-01-08T22:53:24.789Z,0
2023-01-08T22:54:27.583Z,0
2023-01-08T22:56:34.022Z,0
2023-01-08T22:58:39.421Z,0
2023-01-08T23:00:45.010Z,0
2023-01-08T23:01:48.661Z,0
2023-01-08T23:03:56.462Z,0
2023-01-08T23:06:02.570Z,0
2023-01-08T23:08:10.618Z,0
2023-01-08T23:09:13.834Z,0
2023-01-08T23:10:16.849Z,0
2023-01-08T23:11:20.506Z,0
2023-01-08T23:13:27.068Z,0
2023-01-08T23:14:30.481Z,0
2023-01-08T23:15:33.757Z,0
2023-01-08T23:16:37.459Z,0
2023-01-08T23:17:54.344Z,0
2023-01-08T23:18:57.567Z,0
2023-01-08T23:21:03.930Z,0
2023-01-08T23:22:07.563Z,0
2023-01-08T23:23:10.588Z,0
2023-01-08T23:24:14.055Z,0
2023-01-08T23:26:19.663Z,0
2023-01-08T23:27:22.659Z,0
2023-01-08T23:28:26.017Z,0
2023-01-08T23:29:28.827Z,0
2023-01-08T23:31:38.343Z,0
2023-01-08T23:32:42.246Z,0
2023-01-08T23:33:45.491Z,0
2023-01-08T23:34:49.258Z,0
2023-01-08T23:36:55.347Z,0
2023-01-08T23:39:02.045Z,0
2023-01-08T23:40:05.067Z,0
2023-01-08T23:42:11.522Z,0
2023-01-08T23:44:17.181Z,0
2023-01-08T23:46:22.976Z,0
2023-01-08T23:47:25.428Z,0
2023-01-08T23:49:31.991Z,0
2023-01-08T23:51:38.970Z,0
2023-01-08T23:53:44.908Z,0
2023-01-08T23:54:49.242Z,0
2023-01-08T23:56:56.158Z,0
2023-01-08T23:59:02.535Z,0
